Time;durP1;ratioP1;P1;durP2;ratioP2;P2;SDS_P1;SDS_P2;PMS_P1;PMS_P2;Temp;Humidity;BMP_temperature;BMP_pressure;BME280_temperature;BME280_humidity;BME280_pressure;Samples;Min_cycle;Max_cycle;Signal;HPM_P1;HPM_P2
2023/03/29 00:00:58;;;;;;;2.80;1.67;;;;;;;4.52;100.00;101527.22;5087666;28;20020;-68
2023/03/29 00:03:24;;;;;;;5.22;2.03;;;;;;;4.53;100.00;101522.19;5088637;28;20491;-68
2023/03/29 00:05:56;;;;;;;2.00;1.80;;;;;;;4.52;100.00;101520.44;5088151;28;20016;-68
2023/03/29 00:08:21;;;;;;;;;;;;;;;4.52;100.00;101517.88;5088901;28;20543;-68
2023/03/29 00:10:47;;;;;;;3.40;1.87;;;;;;;4.53;100.00;101521.31;5088102;28;19998;-68
2023/03/29 00:13:13;;;;;;;2.67;1.83;;;;;;;4.51;100.00;101518.66;5075760;28;20024;-68
2023/03/29 00:15:40;;;;;;;5.03;2.37;;;;;;;4.50;100.00;101515.97;5080624;28;20376;-68
2023/03/29 00:18:06;;;;;;;3.92;1.95;;;;;;;4.50;100.00;101522.00;5081508;28;20344;-68
2023/03/29 00:20:31;;;;;;;3.65;2.25;;;;;;;4.52;100.00;101510.16;5067260;28;20024;-68
2023/03/29 00:22:56;;;;;;;2.80;1.70;;;;;;;4.52;100.00;101509.25;5091682;28;20054;-68
2023/03/29 00:25:21;;;;;;;2.67;1.70;;;;;;;4.53;100.00;101496.53;5076020;28;20020;-68
2023/03/29 00:27:47;;;;;;;2.43;1.97;;;;;;;4.54;100.00;101503.47;5068755;28;20021;-68
2023/03/29 00:30:13;;;;;;;4.43;2.63;;;;;;;4.55;100.00;101494.09;5067342;28;20027;-68
2023/03/29 00:32:39;;;;;;;4.03;2.30;;;;;;;4.54;100.00;101498.31;5078091;28;20032;-68
2023/03/29 00:35:05;;;;;;;2.42;1.90;;;;;;;4.55;100.00;101488.97;5071491;28;20479;-68
2023/03/29 00:37:30;;;;;;;2.10;1.90;;;;;;;4.56;100.00;101501.88;5067992;28;20475;-68
2023/03/29 00:39:56;;;;;;;4.10;2.00;;;;;;;4.57;100.00;101497.63;5068192;28;20099;-68
2023/03/29 00:42:23;;;;;;;5.32;2.38;;;;;;;4.59;100.00;101495.19;5067462;28;20048;-68
2023/03/29 00:45:03;;;;;;;4.25;2.10;;;;;;;4.61;100.00;101493.59;5080977;28;20016;-68
2023/03/29 00:47:42;;;;;;;3.63;2.03;;;;;;;4.61;100.00;101488.44;5080773;28;20217;-68
2023/03/29 00:50:21;;;;;;;2.28;2.08;;;;;;;4.59;100.00;101485.78;5067169;28;20055;-68
2023/03/29 00:52:57;;;;;;;4.03;2.13;;;;;;;4.61;100.00;101493.59;5097535;28;20040;-68
2023/03/29 00:55:26;;;;;;;2.53;1.70;;;;;;;4.62;100.00;101483.44;5068196;28;20075;-68
2023/03/29 00:57:54;;;;;;;6.15;2.20;;;;;;;4.63;100.00;101481.75;5067731;28;20031;-68
2023/03/29 01:00:25;;;;;;;3.90;1.73;;;;;;;4.63;100.00;101477.50;5071714;28;20436;-68
2023/03/29 01:02:54;;;;;;;3.75;2.30;;;;;;;4.66;100.00;101471.66;5078304;28;20020;-68
2023/03/29 01:05:28;;;;;;;3.55;1.85;;;;;;;4.67;100.00;101473.47;5078644;28;20083;-68
2023/03/29 01:08:05;;;;;;;3.67;2.13;;;;;;;4.69;100.00;101461.63;5091747;28;20317;-69
2023/03/29 01:10:42;;;;;;;4.35;2.00;;;;;;;4.72;100.00;101466.06;5078223;28;20016;-68
2023/03/29 01:13:16;;;;;;;3.08;2.08;;;;;;;4.71;100.00;101467.75;5080303;28;20040;-68
2023/03/29 01:15:44;;;;;;;4.32;2.13;;;;;;;4.71;100.00;101465.19;5071556;28;20539;-68
2023/03/29 01:18:10;;;;;;;4.03;2.00;;;;;;;4.69;100.00;101462.50;5084743;28;20365;-68
2023/03/29 01:21:04;;;;;;;4.10;1.98;;;;;;;4.70;100.00;101458.25;5084840;28;20086;-68
2023/03/29 01:24:06;;;;;;;4.93;2.88;;;;;;;4.69;100.00;101461.63;5098160;28;20034;-68
2023/03/29 01:26:41;;;;;;;3.72;2.15;;;;;;;4.71;100.00;101460.06;5091603;28;20024;-68
2023/03/29 01:29:11;;;;;;;4.07;2.00;;;;;;;4.72;100.00;101460.91;5078018;28;20275;-68
2023/03/29 01:31:45;;;;;;;5.03;2.10;;;;;;;4.73;100.00;101448.19;5089490;28;20063;-68
2023/03/29 01:34:37;;;;;;;3.15;2.10;;;;;;;4.74;100.00;101447.41;5071747;28;20093;-68
2023/03/29 01:37:11;;;;;;;4.22;2.08;;;;;;;4.75;100.00;101444.03;5077049;28;20077;-68
2023/03/29 01:39:36;;;;;;;3.65;2.40;;;;;;;4.76;100.00;101437.22;5077205;28;20024;-68
2023/03/29 01:42:28;;;;;;;3.60;2.20;;;;;;;4.77;100.00;101432.19;5071219;28;20031;-68
2023/03/29 01:45:18;;;;;;;4.68;1.88;;;;;;;4.78;100.00;101427.97;5075523;28;20055;-68
2023/03/29 01:47:53;;;;;;;4.30;2.40;;;;;;;4.79;100.00;101427.16;5076597;28;20025;-68
2023/03/29 01:50:25;;;;;;;5.72;2.25;;;;;;;4.80;100.00;101418.69;5080607;28;20027;-68
2023/03/29 01:53:01;;;;;;;5.18;2.42;;;;;;;4.82;100.00;101421.34;5081172;28;20514;-69
2023/03/29 01:55:32;;;;;;;4.65;2.05;;;;;;;4.82;100.00;101416.22;5098446;28;20036;-68
2023/03/29 01:57:58;;;;;;;;;;;;;;;4.83;100.00;101417.97;5077695;28;20107;-68
2023/03/29 02:00:26;;;;;;;4.15;2.10;;;;;;;4.84;100.00;101409.50;5077652;28;19915;-68
2023/03/29 02:02:55;;;;;;;4.07;2.10;;;;;;;4.82;100.00;101405.94;5056472;28;20035;-68
2023/03/29 02:05:23;;;;;;;5.45;2.25;;;;;;;4.82;100.00;101405.94;5084741;28;20023;-68
2023/03/29 02:07:49;;;;;;;4.32;2.67;;;;;;;4.81;100.00;101410.16;5098901;28;20413;-68
2023/03/29 02:10:16;;;;;;;4.57;2.42;;;;;;;4.83;100.00;101407.69;5081569;28;20349;-68
2023/03/29 02:12:41;;;;;;;3.03;1.80;;;;;;;4.84;100.00;101401.78;5064108;28;20025;-68
2023/03/29 02:15:13;;;;;;;2.92;2.28;;;;;;;4.84;100.00;101399.22;5073515;28;20055;-68
2023/03/29 02:17:38;;;;;;;3.45;1.98;;;;;;;4.85;100.00;101395.84;5101317;28;20027;-68
2023/03/29 02:20:13;;;;;;;3.72;2.45;;;;;;;4.86;100.00;101389.91;5075152;28;20028;-68
2023/03/29 02:23:34;;;;;;;4.85;2.60;;;;;;;4.85;100.00;101383.91;5084736;28;20043;-69
2023/03/29 02:26:01;;;;;;;3.20;2.40;;;;;;;4.85;100.00;101380.44;5033258;28;20040;-68
2023/03/29 02:28:28;;;;;;;3.97;2.42;;;;;;;4.86;100.00;101377.97;5076830;28;20036;-68
2023/03/29 02:31:03;;;;;;;3.65;2.40;;;;;;;4.86;100.00;101382.19;5089705;28;20028;-68
2023/03/29 02:33:37;;;;;;;8.25;2.88;;;;;;;4.87;100.00;101381.44;5093245;28;20015;-68
2023/03/29 02:36:10;;;;;;;4.20;2.28;;;;;;;4.88;100.00;101373.81;5081914;28;20016;-68
2023/03/29 02:38:37;;;;;;;3.40;2.00;;;;;;;4.90;100.00;101364.53;5076073;28;20020;-68
2023/03/29 02:41:04;;;;;;;6.00;2.15;;;;;;;4.91;100.00;101350.88;5077505;28;20021;-69
2023/03/29 02:43:31;;;;;;;6.45;2.13;;;;;;;4.90;100.00;101369.69;5076364;28;20074;-68
2023/03/29 02:45:57;;;;;;;4.57;2.08;;;;;;;4.92;100.00;101365.53;5089877;28;20538;-68
2023/03/29 02:48:27;;;;;;;3.53;2.28;;;;;;;4.95;100.00;101363.94;5069625;28;20025;-68
2023/03/29 02:50:59;;;;;;;6.78;2.60;;;;;;;4.96;100.00;101356.34;5084145;28;20023;-68
2023/03/29 02:53:31;;;;;;;3.55;1.92;;;;;;;4.98;100.00;101349.63;5088879;28;20093;-69
2023/03/29 02:55:56;;;;;;;3.53;1.75;;;;;;;4.99;100.00;101345.34;5076335;28;20012;-68
2023/03/29 02:58:25;;;;;;;3.42;1.85;;;;;;;5.01;100.00;101342.09;5080172;28;20031;-68
2023/03/29 03:00:51;;;;;;;3.72;1.83;;;;;;;5.04;100.00;101343.97;5086437;28;20027;-68
2023/03/29 03:03:16;;;;;;;3.00;1.70;;;;;;;5.07;100.00;101335.56;5089996;28;20020;-68
2023/03/29 03:05:42;;;;;;;3.67;1.75;;;;;;;5.08;100.00;101338.22;5089186;28;20070;-68
2023/03/29 03:08:07;;;;;;;3.28;1.50;;;;;;;5.11;100.00;101340.13;5078477;28;20032;-68
2023/03/29 03:10:34;;;;;;;3.05;1.88;;;;;;;5.12;100.00;101341.88;5090642;28;20488;-68
2023/03/29 03:13:00;;;;;;;3.08;1.95;;;;;;;5.13;100.00;101338.50;5080454;28;20476;-68
2023/03/29 03:15:26;;;;;;;4.15;1.48;;;;;;;5.16;100.00;101341.28;5084348;28;20025;-68
2023/03/29 03:17:51;;;;;;;3.88;2.38;;;;;;;5.17;100.00;101332.78;5080812;28;20075;-68
2023/03/29 03:20:17;;;;;;;2.67;1.60;;;;;;;5.17;100.00;101330.19;5097821;28;20016;-68
2023/03/29 03:22:47;;;;;;;4.32;1.85;;;;;;;5.20;100.00;101329.53;5086777;28;20020;-68
2023/03/29 03:25:18;;;;;;;2.42;1.27;;;;;;;5.21;100.00;101329.59;5094226;28;20496;-68
2023/03/29 03:27:43;;;;;;;5.18;1.70;;;;;;;5.22;100.00;101326.22;5088814;28;20372;-68
2023/03/29 03:30:10;;;;;;;2.10;1.30;;;;;;;5.25;100.00;101321.28;5073820;28;20032;-68
2023/03/29 03:32:36;;;;;;;3.10;1.50;;;;;;;5.25;100.00;101321.28;5078694;28;20044;-68
2023/03/29 03:35:03;;;;;;;3.25;1.90;;;;;;;5.27;100.00;101323.97;5086097;28;20475;-69
2023/03/29 03:37:28;;;;;;;3.00;1.15;;;;;;;5.31;100.00;101325.03;5069494;28;20357;-68
2023/03/29 03:39:54;;;;;;;3.97;1.50;;;;;;;5.32;100.00;101316.53;5081795;28;20078;-68
2023/03/29 03:42:20;;;;;;;3.50;1.60;;;;;;;5.33;100.00;101323.44;5068881;28;20036;-68
2023/03/29 03:44:45;;;;;;;5.13;1.67;;;;;;;5.33;100.00;101321.75;5085624;28;20044;-68
2023/03/29 03:47:13;;;;;;;2.90;1.65;;;;;;;5.34;100.00;101330.38;5088624;28;20043;-68
2023/03/29 03:49:38;;;;;;;2.40;1.52;;;;;;;5.35;100.00;101314.13;5087229;28;20121;-68
2023/03/29 03:52:04;;;;;;;2.45;1.45;;;;;;;5.39;100.00;101318.69;5099904;28;20031;-68
2023/03/29 03:54:30;;;;;;;4.25;1.83;;;;;;;5.38;100.00;101322.03;5104289;28;20052;-68
2023/03/29 03:56:56;;;;;;;3.45;1.77;;;;;;;5.40;100.00;101320.44;5077852;28;20071;-68
2023/03/29 03:59:21;;;;;;;3.88;2.17;;;;;;;5.43;100.00;101320.66;5068376;28;20040;-68
2023/03/29 04:01:46;;;;;;;3.85;2.00;;;;;;;5.42;100.00;101313.72;5080056;28;20023;-68
2023/03/29 04:04:13;;;;;;;4.07;2.05;;;;;;;5.45;100.00;101318.16;5070755;28;20020;-69
2023/03/29 04:06:38;;;;;;;4.22;2.17;;;;;;;5.47;100.00;101308.88;5068126;28;20048;-68
2023/03/29 04:09:04;;;;;;;4.40;2.03;;;;;;;5.49;100.00;101309.81;5068384;28;20444;-68
2023/03/29 04:11:30;;;;;;;4.43;2.30;;;;;;;5.50;100.00;101311.63;5068795;28;20016;-68
2023/03/29 04:13:56;;;;;;;3.88;2.05;;;;;;;5.50;100.00;101312.50;5068289;28;20032;-68
2023/03/29 04:16:22;;;;;;;4.90;2.47;;;;;;;5.50;100.00;101309.94;5068631;28;20562;-68
2023/03/29 04:18:47;;;;;;;2.55;1.98;;;;;;;5.50;100.00;101307.38;5081478;28;20081;-68
2023/03/29 04:21:13;;;;;;;2.17;1.73;;;;;;;5.52;100.00;101300.63;5080743;28;20028;-68
2023/03/29 04:23:38;;;;;;;3.03;1.98;;;;;;;5.53;100.00;101302.41;5095510;28;20027;-69
2023/03/29 04:26:04;;;;;;;5.10;2.58;;;;;;;5.53;100.00;101311.78;5076050;28;20016;-68
2023/03/29 04:28:29;;;;;;;4.93;2.03;;;;;;;5.52;100.00;101295.47;5072441;28;20020;-68
2023/03/29 04:30:55;;;;;;;3.08;1.90;;;;;;;5.53;100.00;101299.84;5076824;28;20096;-68
2023/03/29 04:33:20;;;;;;;4.38;2.60;;;;;;;5.53;100.00;101292.13;5072025;28;20392;-68
2023/03/29 04:35:45;;;;;;;2.97;2.00;;;;;;;5.55;100.00;101296.47;5076598;28;20052;-68
2023/03/29 04:38:11;;;;;;;4.28;2.05;;;;;;;5.55;100.00;101297.34;5072652;28;20449;-68
2023/03/29 04:40:37;;;;;;;3.08;2.00;;;;;;;5.58;100.00;101294.06;5068180;28;20063;-68
2023/03/29 04:43:03;;;;;;;6.47;2.17;;;;;;;5.57;100.00;101297.44;5068137;28;20020;-69
2023/03/29 04:45:28;;;;;;;2.50;2.05;;;;;;;5.60;100.00;101292.47;5055805;28;20328;-68
2023/03/29 04:48:00;;;;;;;3.95;2.42;;;;;;;5.60;100.00;101295.94;5073649;28;20100;-69
2023/03/29 04:50:25;;;;;;;5.47;2.42;;;;;;;5.61;100.00;101294.28;5071450;28;20027;-68
2023/03/29 04:52:50;;;;;;;5.25;2.17;;;;;;;5.62;100.00;101291.78;5074035;28;20073;-67
2023/03/29 04:55:17;;;;;;;3.42;2.00;;;;;;;5.64;100.00;101295.34;5070038;28;20047;-68
2023/03/29 04:57:45;;;;;;;4.43;2.25;;;;;;;5.65;100.00;101286.81;5079377;28;20473;-69
2023/03/29 05:00:14;;;;;;;4.93;2.55;;;;;;;5.66;100.00;101282.56;5067054;28;20104;-68
2023/03/29 05:02:41;;;;;;;3.47;2.50;;;;;;;5.69;100.00;101287.88;5084279;28;20491;-68
2023/03/29 05:05:07;;;;;;;4.38;2.75;;;;;;;5.70;100.00;101274.22;5075194;28;20017;-68
2023/03/29 05:07:32;;;;;;;3.33;2.35;;;;;;;5.73;100.00;101279.56;5079977;28;20022;-68
2023/03/29 05:09:58;;;;;;;5.20;2.45;;;;;;;5.73;100.00;101279.56;5079928;28;20066;-68
2023/03/29 05:12:23;;;;;;;3.75;2.55;;;;;;;5.75;100.00;101272.84;5078641;28;20031;-68
2023/03/29 05:14:49;;;;;;;3.22;2.70;;;;;;;5.77;100.00;101275.50;5066257;28;20064;-68
2023/03/29 05:17:14;;;;;;;7.65;2.90;;;;;;;5.76;100.00;101274.59;5073740;28;20499;-68
2023/03/29 05:19:40;;;;;;;6.38;2.60;;;;;;;5.77;100.00;101281.50;5079911;28;20032;-69
2023/03/29 05:22:05;;;;;;;4.38;2.53;;;;;;;5.79;100.00;101280.72;5072850;28;20464;-68
2023/03/29 05:24:30;;;;;;;5.18;2.63;;;;;;;5.80;100.00;101265.38;5082437;28;20116;-68
2023/03/29 05:26:56;;;;;;;4.90;2.83;;;;;;;5.83;100.00;101274.97;5083256;28;20654;-68
2023/03/29 05:29:22;;;;;;;4.40;2.33;;;;;;;5.85;100.00;101281.06;5058384;28;20044;-68
2023/03/29 05:31:48;;;;;;;5.30;2.90;;;;;;;5.87;100.00;101282.03;5064878;28;20032;-68
2023/03/29 05:34:13;;;;;;;6.25;2.85;;;;;;;5.89;100.00;101283.94;5083378;28;20039;-68
2023/03/29 05:36:39;;;;;;;4.72;2.25;;;;;;;5.92;100.00;101283.19;5076066;28;20023;-68
2023/03/29 05:39:05;;;;;;;3.28;2.55;;;;;;;5.94;100.00;101299.63;5072705;28;20162;-68
2023/03/29 05:41:31;;;;;;;3.95;2.40;;;;;;;5.98;100.00;101300.69;5068343;28;20452;-68
2023/03/29 05:43:56;;;;;;;4.15;2.53;;;;;;;6.03;100.00;101295.81;5073452;28;20028;-68
2023/03/29 05:46:22;;;;;;;4.90;2.58;;;;;;;6.07;100.00;101295.22;5075212;28;20031;-68
2023/03/29 05:48:47;;;;;;;5.75;2.92;;;;;;;6.08;100.00;101289.28;5076504;28;20113;-68
2023/03/29 05:51:13;;;;;;;5.35;3.17;;;;;;;6.10;100.00;101285.09;5082310;28;20055;-69
2023/03/29 05:53:38;;;;;;;5.18;2.20;;;;;;;6.12;100.00;101291.22;5073940;28;20048;-69
2023/03/29 05:56:05;;;;;;;5.88;2.70;;;;;;;6.18;100.00;101290.69;5089761;28;20032;-68
2023/03/29 05:58:30;;;;;;;3.28;2.70;;;;;;;6.22;100.00;101295.22;5076580;28;20480;-68
2023/03/29 06:00:56;;;;;;;4.88;2.70;;;;;;;6.24;100.00;101299.63;5081638;28;20024;-69
2023/03/29 06:03:26;;;;;;;3.90;2.88;;;;;;;6.28;100.00;101285.25;5086702;28;20048;-68
2023/03/29 06:06:02;;;;;;;5.65;2.92;;;;;;;6.32;100.00;101294.03;5081112;28;20406;-68
2023/03/29 06:08:29;;;;;;;3.55;2.40;;;;;;;6.35;100.00;101294.25;5077785;28;20066;-68
2023/03/29 06:11:03;;;;;;;4.65;2.90;;;;;;;6.41;100.00;101293.69;5082244;28;20039;-68
2023/03/29 06:13:30;;;;;;;3.35;2.38;;;;;;;6.44;100.00;101296.44;5084387;28;20023;-68
2023/03/29 06:15:56;;;;;;;4.47;2.40;;;;;;;6.48;100.00;101294.13;5086999;28;20082;-68
2023/03/29 06:18:22;;;;;;;3.58;2.53;;;;;;;6.51;100.00;101288.28;5077168;28;20021;-68
2023/03/29 06:20:49;;;;;;;8.27;3.20;;;;;;;6.55;100.00;101299.63;5074266;28;20051;-68
2023/03/29 06:23:15;;;;;;;5.10;3.13;;;;;;;6.56;100.00;101301.38;5096365;28;20034;-68
2023/03/29 06:25:40;;;;;;;4.38;2.72;;;;;;;6.57;100.00;101296.31;5077880;28;20095;-68
2023/03/29 06:28:06;;;;;;;5.05;3.00;;;;;;;6.60;100.00;101303.34;5078165;28;20090;-68
2023/03/29 06:30:31;;;;;;;4.38;2.47;;;;;;;6.60;100.00;101293.91;5089497;28;20020;-69
2023/03/29 06:32:58;;;;;;;7.68;2.95;;;;;;;6.63;100.00;101302.59;5077796;28;20028;-68
2023/03/29 06:35:24;;;;;;;3.38;2.40;;;;;;;6.65;100.00;101303.59;5089331;28;20063;-68
2023/03/29 06:37:49;;;;;;;3.75;2.72;;;;;;;6.67;100.00;101299.41;5078027;28;20132;-68
2023/03/29 06:40:17;;;;;;;4.90;2.65;;;;;;;6.71;100.00;101296.22;5089215;28;20062;-68
2023/03/29 06:42:43;;;;;;;4.40;2.70;;;;;;;6.74;100.00;101291.22;5076828;28;20074;-68
2023/03/29 06:45:09;;;;;;;6.05;2.85;;;;;;;6.77;100.00;101293.06;5076544;28;20435;-69
2023/03/29 06:47:34;;;;;;;5.22;2.45;;;;;;;6.80;100.00;101300.97;5076864;28;20103;-69
2023/03/29 06:50:00;;;;;;;6.50;2.83;;;;;;;6.82;100.00;101289.03;5089819;28;20121;-69
2023/03/29 06:52:25;;;;;;;4.45;2.55;;;;;;;6.83;100.00;101296.88;5076550;28;20032;-69
2023/03/29 06:54:51;;;;;;;5.88;2.67;;;;;;;6.86;100.00;101291.00;5069396;28;20054;-69
2023/03/29 06:57:16;;;;;;;5.68;2.70;;;;;;;6.90;100.00;101292.06;5071310;28;20078;-69
2023/03/29 06:59:41;;;;;;;6.40;3.08;;;;;;;6.92;100.00;101293.03;5082945;28;20030;-69
2023/03/29 07:02:11;;;;;;;3.30;2.35;;;;;;;6.95;100.00;101295.75;5069578;28;20516;-69
2023/03/29 07:04:36;;;;;;;4.20;2.65;;;;;;;7.00;100.00;101299.47;5069428;28;20032;-69
2023/03/29 07:07:02;;;;;;;5.53;2.80;;;;;;;7.06;100.00;101304.97;5098564;28;20027;-68
2023/03/29 07:09:30;;;;;;;3.58;2.75;;;;;;;7.09;100.00;101305.13;5093988;28;20056;-69
2023/03/29 07:11:57;;;;;;;4.88;2.83;;;;;;;7.13;100.00;101311.34;5068859;28;20374;-69
2023/03/29 07:14:27;;;;;;;6.10;3.38;;;;;;;7.17;100.00;101307.22;5069389;28;20024;-69
2023/03/29 07:16:53;;;;;;;4.50;2.70;;;;;;;7.19;100.00;101309.09;5069521;28;20652;-69
2023/03/29 07:19:21;;;;;;;3.15;2.38;;;;;;;7.22;100.00;101310.94;5069617;28;20028;-69
2023/03/29 07:21:46;;;;;;;8.57;3.05;;;;;;;7.24;100.00;101311.91;5085446;28;20319;-68
2023/03/29 07:24:12;;;;;;;5.95;2.92;;;;;;;7.28;100.00;101321.59;5102405;28;20493;-68
2023/03/29 07:26:37;;;;;;;11.23;3.83;;;;;;;7.31;100.00;101315.69;5089142;28;20032;-68
2023/03/29 07:29:02;;;;;;;5.25;2.80;;;;;;;7.33;100.00;101321.81;5089314;28;20024;-69
2023/03/29 07:31:33;;;;;;;5.97;3.05;;;;;;;7.34;100.00;101315.84;5088211;28;20099;-68
2023/03/29 07:34:05;;;;;;;4.10;2.75;;;;;;;7.37;100.00;101318.63;5081431;28;20020;-68
2023/03/29 07:36:33;;;;;;;3.83;3.08;;;;;;;7.40;100.00;101326.50;5082246;28;20027;-69
2023/03/29 07:39:00;;;;;;;6.65;3.05;;;;;;;7.42;100.00;101327.47;5069521;28;20104;-68
2023/03/29 07:41:26;;;;;;;6.75;3.17;;;;;;;7.42;100.00;101330.06;5069136;28;20075;-68
2023/03/29 07:43:51;;;;;;;5.75;2.95;;;;;;;7.44;100.00;101338.75;5078462;28;20024;-68
2023/03/29 07:46:16;;;;;;;6.80;3.15;;;;;;;7.46;100.00;101344.00;5088368;28;20103;-69
2023/03/29 07:48:41;;;;;;;3.13;2.78;;;;;;;7.47;100.00;101345.75;5098927;28;20020;-68
2023/03/29 07:51:07;;;;;;;5.20;3.25;;;;;;;7.50;100.00;101350.22;5092419;28;20045;-69
2023/03/29 07:53:32;;;;;;;4.63;3.35;;;;;;;7.52;100.00;101346.03;5098699;28;20050;-69
2023/03/29 07:55:57;;;;;;;5.13;3.22;;;;;;;7.54;100.00;101352.13;5088464;28;20062;-68
2023/03/29 07:58:23;;;;;;;5.18;3.40;;;;;;;7.55;100.00;101341.03;5069093;28;20056;-68
2023/03/29 08:00:49;;;;;;;6.53;3.63;;;;;;;7.56;100.00;101346.25;5069505;28;20027;-69
2023/03/29 08:03:15;;;;;;;9.05;4.13;;;;;;;7.57;100.00;101344.56;5069409;28;20453;-69
2023/03/29 08:05:41;;;;;;;5.90;3.90;;;;;;;7.60;100.00;101343.81;5069103;28;20024;-68
2023/03/29 08:08:08;;;;;;;5.85;4.00;;;;;;;7.61;100.00;101345.63;5067338;28;20551;-68
2023/03/29 08:10:35;;;;;;;5.25;3.53;;;;;;;7.64;100.00;101350.94;5072450;28;20073;-69
2023/03/29 08:13:06;;;;;;;8.13;3.95;;;;;;;7.67;100.00;101345.91;5100170;28;20027;-69
2023/03/29 08:15:32;;;;;;;6.78;4.57;;;;;;;7.66;100.00;101336.44;5071835;28;20396;-69
2023/03/29 08:17:57;;;;;;;8.10;4.38;;;;;;;7.68;100.00;101327.94;5080659;28;20051;-69
2023/03/29 08:20:23;;;;;;;6.82;4.35;;;;;;;7.68;100.00;101333.09;5074533;28;20498;-70
2023/03/29 08:22:48;;;;;;;7.32;4.38;;;;;;;7.72;100.00;101338.44;5096727;28;20019;-68
2023/03/29 08:25:13;;;;;;;7.07;4.55;;;;;;;7.72;100.00;101343.59;5079713;28;20024;-69
2023/03/29 08:27:38;;;;;;;7.03;4.32;;;;;;;7.71;100.00;101341.81;5088166;28;20022;-69
2023/03/29 08:30:06;;;;;;;5.63;4.03;;;;;;;7.73;100.00;101335.03;5087890;28;20027;-69
2023/03/29 08:32:32;;;;;;;6.72;4.13;;;;;;;7.79;100.00;101327.59;5087828;28;20085;-69
2023/03/29 08:34:57;;;;;;;6.80;4.47;;;;;;;7.87;100.00;101317.69;5074053;28;20028;-69
2023/03/29 08:37:24;;;;;;;8.90;4.72;;;;;;;7.91;100.00;101320.50;5097241;28;20482;-69
2023/03/29 08:39:50;;;;;;;6.93;4.38;;;;;;;7.97;100.00;101319.03;5078498;28;20432;-69
2023/03/29 08:42:40;;;;;;;6.90;4.35;;;;;;;7.99;100.00;101315.72;5078156;28;20048;-69
2023/03/29 08:45:24;;;;;;;10.80;4.78;;;;;;;8.02;100.00;101312.41;5087304;28;20460;-69
2023/03/29 08:48:02;;;;;;;7.18;5.20;;;;;;;8.05;100.00;101317.72;5087817;28;20062;-69
2023/03/29 08:50:39;;;;;;;8.38;5.25;;;;;;;8.10;100.00;101320.53;5087615;28;20027;-69
2023/03/29 08:53:12;;;;;;;10.07;5.30;;;;;;;8.13;100.00;101326.72;5087679;28;20374;-69
2023/03/29 08:55:44;;;;;;;7.05;4.32;;;;;;;8.20;100.00;101327.06;5087250;28;20036;-69
2023/03/29 08:58:18;;;;;;;9.32;4.35;;;;;;;8.20;100.00;101316.72;5068130;28;20081;-69
2023/03/29 09:00:49;;;;;;;7.50;4.38;;;;;;;8.25;100.00;101316.16;5069837;28;20392;-69
2023/03/29 09:03:36;;;;;;;6.88;4.30;;;;;;;8.27;100.00;101319.66;5078227;28;20031;-69
2023/03/29 09:06:08;;;;;;;7.40;4.40;;;;;;;8.29;100.00;101319.75;5068129;28;20029;-69
2023/03/29 09:08:45;;;;;;;8.38;5.05;;;;;;;8.35;100.00;101322.63;5067659;28;20116;-69
2023/03/29 09:11:23;;;;;;;8.32;4.70;;;;;;;8.39;100.00;101310.75;5067989;28;20166;-69
2023/03/29 09:14:03;;;;;;;6.55;4.43;;;;;;;8.46;100.00;101309.34;5080302;28;20392;-69
2023/03/29 09:16:34;;;;;;;6.22;4.40;;;;;;;8.47;100.00;101311.13;5068129;28;20043;-69
2023/03/29 09:19:05;;;;;;;;;;;;;;;8.49;100.00;101312.09;5075440;28;20032;-69
2023/03/29 09:21:42;;;;;;;6.95;4.13;;;;;;;8.48;100.00;101318.97;5077508;28;20304;-69
2023/03/29 09:24:26;;;;;;;5.63;3.88;;;;;;;8.51;100.00;101308.75;5099711;28;20526;-69
2023/03/29 09:27:17;;;;;;;10.68;4.90;;;;;;;8.52;100.00;101322.56;5072121;28;20036;-69
2023/03/29 09:29:55;;;;;;;6.25;4.05;;;;;;;8.52;100.00;101320.88;5072227;28;20468;-69
2023/03/29 09:32:26;;;;;;;8.02;5.32;;;;;;;8.48;100.00;101323.22;5078183;28;20471;-68
2023/03/29 09:35:02;;;;;;;6.45;4.30;;;;;;;8.43;100.00;101319.53;5078599;28;20082;-69
2023/03/29 09:37:37;;;;;;;7.47;4.68;;;;;;;8.43;100.00;101330.75;5072638;28;20055;-69
2023/03/29 09:40:10;;;;;;;7.55;5.28;;;;;;;8.38;100.00;101317.59;5072973;28;20103;-69
2023/03/29 09:42:37;;;;;;;7.40;4.10;;;;;;;8.40;100.00;101315.13;5084049;28;20749;-69
2023/03/29 09:45:07;;;;;;;6.45;4.55;;;;;;;8.44;100.00;101321.31;5083447;28;20024;-69
2023/03/29 09:47:58;;;;;;;9.13;4.88;;;;;;;8.50;100.00;101317.34;5078302;28;20372;-69
2023/03/29 09:50:41;;;;;;;8.20;5.43;;;;;;;8.53;100.00;101321.75;5062582;28;20044;-69
2023/03/29 09:53:08;;;;;;;7.38;5.22;;;;;;;8.55;100.00;101314.06;5070904;28;20047;-69
2023/03/29 09:55:36;;;;;;;8.80;5.57;;;;;;;8.55;100.00;101314.06;5070956;28;20036;-69
2023/03/29 09:58:10;;;;;;;12.35;5.90;;;;;;;8.56;100.00;101313.31;5070768;28;20059;-69
2023/03/29 10:00:36;;;;;;;8.38;5.57;;;;;;;8.59;100.00;101332.44;5084124;28;20020;-69
2023/03/29 10:03:01;;;;;;;7.20;5.22;;;;;;;8.57;100.00;101327.97;5061709;28;20012;-69
2023/03/29 10:05:31;;;;;;;11.65;5.60;;;;;;;8.60;100.00;101321.25;5075037;28;20023;-69
2023/03/29 10:07:59;;;;;;;9.57;5.65;;;;;;;8.63;100.00;101326.56;5070990;28;20488;-69
2023/03/29 10:10:33;;;;;;;9.68;5.60;;;;;;;8.63;100.00;101318.81;5070719;28;20033;-69
2023/03/29 10:13:03;;;;;;;7.88;5.88;;;;;;;8.62;100.00;101311.91;5081657;28;20046;-69
2023/03/29 10:15:30;;;;;;;8.65;6.38;;;;;;;8.67;100.00;101314.69;5085513;28;20466;-69
2023/03/29 10:18:01;;;;;;;7.72;6.32;;;;;;;8.75;100.00;101315.06;5082492;28;20039;-69
2023/03/29 10:20:27;;;;;;;7.55;5.78;;;;;;;8.80;100.00;101313.56;5090055;28;20019;-69
2023/03/29 10:22:58;;;;;;;7.50;6.32;;;;;;;8.85;100.00;101314.66;5103278;28;20471;-69
2023/03/29 10:25:28;;;;;;;;;;;;;;;8.91;100.00;101311.50;5091133;28;20056;-69
2023/03/29 10:28:01;;;;;;;9.10;6.20;;;;;;;8.97;100.00;101318.66;5070452;28;19908;-69
2023/03/29 10:30:27;;;;;;;8.43;5.50;;;;;;;8.98;100.00;101299.72;5091867;28;20051;-69
2023/03/29 10:32:58;;;;;;;9.98;5.82;;;;;;;8.91;100.00;101300.25;5099209;28;20350;-69
2023/03/29 10:35:29;;;;;;;8.13;5.90;;;;;;;8.91;100.00;101295.97;5084156;28;20019;-69
2023/03/29 10:37:57;;;;;;;9.23;6.25;;;;;;;8.96;100.00;101284.16;5070327;28;20028;-69
2023/03/29 10:40:34;;;;;;;8.35;6.95;;;;;;;9.13;100.00;101290.09;5070284;28;20358;-69
2023/03/29 10:43:11;;;;;;;9.93;6.47;;;;;;;9.31;100.00;101291.75;5071702;28;20032;-69
2023/03/29 10:45:37;;;;;;;6.72;5.80;;;;;;;9.53;100.00;101284.03;5079414;28;20350;-69
2023/03/29 10:48:05;;;;;;;8.80;5.70;;;;;;;9.69;100.00;101286.47;5074158;28;20020;-69
2023/03/29 10:50:34;;;;;;;6.57;5.32;;;;;;;9.79;100.00;101279.97;5089743;28;20016;-69
2023/03/29 10:53:01;;;;;;;8.80;5.68;;;;;;;9.86;100.00;101275.94;5088796;28;20040;-69
2023/03/29 10:55:35;;;;;;;6.75;5.30;;;;;;;10.00;100.00;101265.28;5100916;28;20038;-69
2023/03/29 10:58:29;;;;;;;8.57;5.13;;;;;;;10.19;100.00;101256.56;5107826;28;20011;-69
2023/03/29 11:00:55;;;;;;;6.25;4.95;;;;;;;10.53;100.00;101257.03;5091748;28;20120;-70
2023/03/29 11:03:27;;;;;;;7.18;4.97;;;;;;;10.76;100.00;101249.25;5088528;28;20116;-69
2023/03/29 11:06:10;;;;;;;7.32;5.18;;;;;;;10.91;100.00;101244.66;5090871;28;20154;-68
2023/03/29 11:08:52;;;;;;;5.72;4.80;;;;;;;11.05;100.00;101242.56;5095279;28;20024;-68
2023/03/29 11:11:50;;;;;;;8.32;4.25;;;;;;;11.13;100.00;101241.97;5070916;28;20017;-68
2023/03/29 11:14:27;;;;;;;4.95;4.30;;;;;;;11.23;100.00;101244.06;5065994;28;20032;-68
2023/03/29 11:17:16;;;;;;;7.32;4.22;;;;;;;11.27;100.00;101243.34;5083766;28;20369;-69
2023/03/29 11:19:58;;;;;;;5.75;4.53;;;;;;;11.49;100.00;101232.84;5077088;28;20028;-71
2023/03/29 11:22:52;;;;;;;5.07;4.30;;;;;;;11.84;100.00;101219.25;5092562;28;20030;-70
2023/03/29 11:25:27;;;;;;;8.38;4.30;;;;;;;12.10;100.00;101227.97;5095512;28;20020;-68
2023/03/29 11:28:04;;;;;;;4.75;3.88;;;;;;;12.19;100.00;101229.06;5109421;28;20130;-68
2023/03/29 11:30:35;;;;;;;4.88;3.97;;;;;;;12.29;100.00;101232.81;5076772;28;20012;-69
2023/03/29 11:33:20;;;;;;;6.13;4.57;;;;;;;12.25;100.00;101232.72;5076127;28;20110;-69
2023/03/29 11:36:09;;;;;;;6.65;4.03;;;;;;;12.23;100.00;101244.78;5077543;28;20034;-69